Stations météo

réclame
Mon MeteoGroup
Somosierra, Espagne (8145): Température de l'air & dewpoint: 08.12.2017 18:00:00 - 14.12.2017 18:00:00 (CET)Somosierra, Espagne (8145): Vitesse du vent & gusts: 08.12.2017 18:00:00 - 14.12.2017 18:00:00 (CET)Somosierra, Espagne (8145): Direction du vent: 08.12.2017 18:00:00 - 14.12.2017 18:00:00 (CET)Somosierra, Espagne (8145): Quantités de précipitations: 08.12.2017 18:00:00 - 14.12.2017 18:00:00 (CET)
Date & Time tt [°C] td [°C] ff [km/h] ff [knt] fx [km/h] fx [knt] dd rr [mm]
14.12.2017 18:00:00 - - - - - - - -
14.12.2017 17:00:00 6,4 4,8 4 2 30 16 E 1,2
14.12.2017 16:00:00 6,4 4,8 6 3 34 18 ENE 0,7
14.12.2017 15:00:00 6,4 4,8 10 5 35 19 E 0,1
14.12.2017 14:00:00 6,6 5,1 10 5 40 21 E 0,8
14.12.2017 13:00:00 6,9 5,5 7 4 31 17 E -
14.12.2017 12:00:00 6,6 5,3 8 5 27 15 ESE 1,0
14.12.2017 11:00:00 6,2 4,8 6 3 27 15 ESE 0,5
14.12.2017 10:00:00 5,8 4,5 3 2 23 13 SSE 0,6
14.12.2017 09:00:00 5,7 4,3 8 4 32 17 ESE 0,8
14.12.2017 08:00:00 5,5 4,1 9 5 39 21 E 0,6
14.12.2017 07:00:00 5,5 4,1 9 5 31 17 SSE -
14.12.2017 06:00:00 5,2 3,8 9 5 26 14 SE 0,3
14.12.2017 05:00:00 5,1 3,8 7 4 27 14 SE 0,2
14.12.2017 04:00:00 5,0 3,6 2 1 30 16 SE 0,5
14.12.2017 03:00:00 4,6 3,2 5 3 22 12 SE 0,1
14.12.2017 02:00:00 4,6 3,2 5 3 28 15 SE 0,3
14.12.2017 01:00:00 4,2 2,9 4 2 30 16 E -
14.12.2017 00:00:00 4,1 2,7 2 1 34 19 E 0,2
13.12.2017 23:00:00 4,0 2,7 4 2 22 12 E 0,0
13.12.2017 22:00:00 4,2 2,7 4 2 19 11 E 0,3
13.12.2017 21:00:00 3,7 2,1 1 0 25 13 NE 0,0
13.12.2017 20:00:00 3,2 1,5 4 2 23 12 E 0,0
13.12.2017 19:00:00 3,5 1,7 9 5 24 13 SSE -
13.12.2017 18:00:00 3,5 1,3 10 6 23 12 SE 0,1
13.12.2017 17:00:00 3,6 1,9 6 3 28 15 E 0,9
13.12.2017 16:00:00 4,1 2,5 5 3 32 18 E 1,8
13.12.2017 15:00:00 3,8 2,1 1 1 16 9 ESE 2,1
13.12.2017 14:00:00 3,3 1,5 3 1 14 7 NNE 2,7
13.12.2017 13:00:00 3,0 0,6 1 1 11 6 NE -
13.12.2017 12:00:00 2,8 0,0 0 0 10 5 NE 1,1
13.12.2017 11:00:00 2,0 -1,7 1 1 17 9 E 0,1
13.12.2017 10:00:00 0,3 -3,9 2 1 12 7 SE 0,0
13.12.2017 09:00:00 -0,5 -3,3 1 0 12 7 WNW 0,0
13.12.2017 08:00:00 -1,0 -4,5 0 0 9 5 N 0,0
13.12.2017 07:00:00 -1,3 -5,1 1 1 11 6 ENE -
13.12.2017 06:00:00 -2,1 -4,8 0 0 14 8 N 0,0
13.12.2017 05:00:00 -1,3 -4,5 1 1 19 11 NNE 0,0
13.12.2017 04:00:00 -1,2 -3,3 1 0 10 5 E 0,0
13.12.2017 03:00:00 -2,3 -4,8 1 0 6 4 N 0,0
13.12.2017 02:00:00 -1,7 -4,2 1 0 13 7 NNE 0,0
13.12.2017 01:00:00 -1,9 -4,5 0 0 10 5 N -
13.12.2017 00:00:00 -1,4 -3,6 0 0 8 5 N 0,0
12.12.2017 23:00:00 -2,4 -4,5 1 0 8 4 N 0,0
12.12.2017 22:00:00 -2,8 -5,1 0 0 2 1 NNE 0,0
12.12.2017 21:00:00 -1,7 -4,2 0 0 5 3 N 0,0
12.12.2017 20:00:00 -1,5 -3,9 1 1 12 7 ENE 0,0
12.12.2017 19:00:00 -1,6 -3,9 2 1 13 7 NNE -
12.12.2017 18:00:00 -1,4 -3,9 1 0 10 5 NNE 0,4
12.12.2017 17:00:00 -0,7 -3,0 1 0 11 6 NE 0,6
12.12.2017 16:00:00 -1,0 -3,3 2 1 11 6 NE 0,5
12.12.2017 15:00:00 -1,2 -3,3 3 1 14 7 NE 1,3
12.12.2017 14:00:00 -0,6 -2,7 3 1 17 9 NE 1,0
12.12.2017 13:00:00 -1,2 -3,0 4 2 15 8 NNE -
12.12.2017 12:00:00 -1,6 -3,6 4 2 17 9 NNE 0,0
12.12.2017 11:00:00 -2,2 -3,9 4 2 16 8 NNE 0,0
12.12.2017 10:00:00 -2,9 -4,5 1 0 11 6 NW 0,0
12.12.2017 09:00:00 -3,5 -5,1 1 0 13 7 SW 0,0
12.12.2017 08:00:00 -3,7 -5,4 0 0 12 6 NW 0,0
12.12.2017 07:00:00 -3,7 -5,4 1 0 12 7 N -
12.12.2017 06:00:00 -3,9 -5,4 0 0 13 7 NNE 0,0
12.12.2017 05:00:00 -3,9 -5,4 0 0 15 8 NNW 0,0
12.12.2017 04:00:00 -3,9 -5,4 1 0 13 7 SW 0,0
12.12.2017 03:00:00 -4,1 -5,7 1 1 12 7 NNE 0,0
12.12.2017 02:00:00 -4,2 -5,7 1 0 27 15 NE 0,0
12.12.2017 01:00:00 -3,9 -5,4 3 2 31 17 SW -
12.12.2017 00:00:00 -2,7 -4,2 4 2 36 20 WSW 0,0
11.12.2017 23:00:00 -2,7 -4,2 11 6 38 20 ENE 0,0
11.12.2017 22:00:00 -1,8 -3,0 7 4 32 17 NE 0,0
11.12.2017 21:00:00 -1,6 -3,0 13 7 32 18 NE 0,0
11.12.2017 20:00:00 -0,2 -1,4 5 3 29 16 ENE 0,1
11.12.2017 19:00:00 -0,3 -1,7 7 4 27 15 ENE -
11.12.2017 18:00:00 -0,3 -1,7 4 2 27 14 ENE 0,2
11.12.2017 17:00:00 -0,2 -2,2 5 3 22 12 E 0,1
11.12.2017 16:00:00 0,0 -2,2 1 1 26 14 ESE 0,3
11.12.2017 15:00:00 0,0 -2,5 3 2 24 13 ESE 0,9
11.12.2017 14:00:00 -0,2 -2,5 5 3 29 16 E 1,0
11.12.2017 13:00:00 -0,3 -2,5 7 4 29 16 E -
11.12.2017 12:00:00 -0,5 -2,2 6 4 33 18 E 0,8
11.12.2017 11:00:00 -0,2 -1,7 4 2 27 15 E 0,7
11.12.2017 10:00:00 -0,2 -1,7 8 5 31 17 E 0,0
11.12.2017 09:00:00 0,0 -1,7 5 3 27 15 E 0,0
11.12.2017 08:00:00 0,1 -1,7 14 8 34 18 SSE 0,0
11.12.2017 07:00:00 0,3 -1,7 6 4 39 21 SSE -
11.12.2017 06:00:00 0,4 -1,7 15 8 44 24 SSE 0,2
11.12.2017 05:00:00 0,4 -1,7 12 7 51 27 ESE 0,3
11.12.2017 04:00:00 0,4 -1,7 15 8 41 22 SSE 0,0
11.12.2017 03:00:00 0,7 -1,7 9 5 65 35 SE 4,1
11.12.2017 02:00:00 5,2 3,0 24 13 53 28 SE 0,2
11.12.2017 01:00:00 4,9 3,2 24 13 55 30 ESE -
11.12.2017 00:00:00 4,7 3,4 28 15 55 30 ESE 0,9
10.12.2017 23:00:00 4,7 3,4 31 17 57 31 ESE 0,2
10.12.2017 22:00:00 4,4 3,0 22 12 41 22 ESE 0,0
10.12.2017 21:00:00 4,9 3,6 18 10 40 22 ESE 0,1
10.12.2017 20:00:00 5,1 3,8 16 8 33 18 SE 0,1
10.12.2017 19:00:00 5,0 3,6 14 8 33 18 ESE -
10.12.2017 18:00:00 5,2 3,6 15 8 29 16 ESE 0,1
10.12.2017 17:00:00 4,7 3,2 13 7 23 12 SE 0,0
10.12.2017 16:00:00 5,1 3,2 10 5 22 12 ESE 0,0
10.12.2017 15:00:00 5,8 3,0 10 5 35 19 SE 0,0
10.12.2017 14:00:00 6,4 2,5 11 6 47 25 SSE 0,0
10.12.2017 13:00:00 6,0 3,0 12 6 37 20 SSE -
10.12.2017 12:00:00 5,2 2,3 7 4 27 15 ESE 0,0
10.12.2017 11:00:00 4,8 2,5 6 3 31 17 SE 0,0
10.12.2017 10:00:00 4,7 2,9 10 6 34 18 SSE 0,0
10.12.2017 09:00:00 4,3 3,0 10 6 31 17 SE 0,2
10.12.2017 08:00:00 4,4 3,0 7 4 30 16 E 0,4
10.12.2017 07:00:00 4,4 3,0 7 4 29 16 E -
10.12.2017 06:00:00 4,3 3,0 9 5 34 18 E 0,1
10.12.2017 05:00:00 4,5 3,2 7 4 34 19 ESE 0,0
10.12.2017 04:00:00 4,7 3,6 7 4 34 19 E 0,0
10.12.2017 03:00:00 5,0 3,8 9 5 34 19 SE 0,0
10.12.2017 02:00:00 5,3 4,1 9 5 39 21 ENE 0,0
10.12.2017 01:00:00 5,4 4,1 11 6 41 22 ENE -
10.12.2017 00:00:00 5,3 4,1 9 5 44 24 ENE 0,0
09.12.2017 23:00:00 5,3 4,1 10 5 33 18 ENE 0,0
09.12.2017 22:00:00 5,4 4,1 10 5 41 22 ENE 0,0
09.12.2017 21:00:00 5,6 4,5 11 6 39 21 ENE 0,0
09.12.2017 20:00:00 5,7 4,5 11 6 44 24 ENE 0,0
09.12.2017 19:00:00 5,9 4,6 9 5 39 21 ENE -
09.12.2017 18:00:00 6,0 4,8 5 3 28 15 NE 0,7
09.12.2017 17:00:00 5,9 4,6 10 5 30 16 ENE 1,7
09.12.2017 16:00:00 5,5 4,3 5 3 21 11 ENE 0,5
09.12.2017 15:00:00 4,8 3,6 4 2 19 10 ENE 0,1
09.12.2017 14:00:00 4,3 3,0 5 3 24 13 ENE 0,2
09.12.2017 13:00:00 4,1 2,9 5 3 21 11 ENE -
09.12.2017 12:00:00 3,5 2,3 5 3 23 12 NE 0,1
09.12.2017 11:00:00 3,0 1,9 4 2 21 12 ENE 0,0
09.12.2017 10:00:00 2,7 1,5 4 2 27 14 ENE 0,0
09.12.2017 09:00:00 2,3 1,1 5 3 20 11 ENE 0,0
09.12.2017 08:00:00 1,8 0,6 10 5 26 14 NNE 0,0
09.12.2017 07:00:00 1,6 0,4 10 5 23 13 NNE -
09.12.2017 06:00:00 1,8 0,6 6 4 22 12 NE 0,0
09.12.2017 05:00:00 1,8 0,6 9 5 32 17 NE 0,0
09.12.2017 04:00:00 2,0 0,9 9 5 28 15 NE 0,0
09.12.2017 03:00:00 2,7 1,5 7 4 27 15 NE 0,1
09.12.2017 02:00:00 2,9 1,7 6 4 25 14 NE 0,2
09.12.2017 01:00:00 3,7 2,5 8 4 34 19 NE -
09.12.2017 00:00:00 5,4 4,1 7 4 27 14 NE 0,6
08.12.2017 23:00:00 5,3 4,1 5 3 21 11 ENE 1,1
08.12.2017 22:00:00 5,3 4,1 5 3 21 11 ENE 0,7
08.12.2017 21:00:00 5,2 3,9 6 4 35 19 NE 1,0
08.12.2017 20:00:00 5,3 4,1 6 3 29 16 NE 1,0
08.12.2017 19:00:00 5,4 4,1 6 3 24 13 ENE -
08.12.2017 18:00:00 5,2 3,9 5 3 18 10 ENE 0,2

tt = Température de l'air
td = dewpoint
ff = Vitesse du vent
fx = gusts
dd = Direction du vent
rr = Quantités de précipitations

stations d'obs. à proximité